Main page
METAR-TAF:

METAR-TAF

Airports :

Melbourne Airport

Melbourne, Australia

latitude: 37-40-24S, longitude: 144-50-36E, elevation: 132 m

Current weather observation

The report was made 39 minutes ago, at 01:30 UTC
Wind 11 kt from the South/Southwest
Temperature 11°C
Humidity 66%
Pressure 1022 hPa
Visibility 10 km or more
Few clouds at a height of 2400 ft
Broken clouds at a height of 2900 ft

METAR: YMML 160130Z 20011KT 9999 FEW024 BKN029 11/05 Q1022 RF00.0/000.0

Time: 12:09 (02:09 UTC)

Forecast

The report was made 3 hours and 6 minutes ago, at 23:03 UTC
Forecast valid from 16 at 00 UTC to 17 at 06 UTC
Wind 14 kt from the South
Visibility 10 km or more
Broken clouds at a height of 3500 ft
From 16 at 0900 UTC
Wind 8 kt from the Southwest
Visibility 10 km or more
Broken clouds at a height of 2500 ft
From 17 at 0200 UTC
Wind 10 kt from the South
Visibility 10 km or more
Scattered clouds at a height of 3500 ft

TAF: YMML 152303Z 1600/1706 19014KT 9999 BKN035 FM160900 23008KT 9999 BKN025 FM170200 18010KT 9999 SCT035

Weather observations and forecasts of more than 4000 airports (METAR and TAF reports).

The available stations are represented by yellow and red dots on the map.

Hover mouse over dot to see the name of the station.

Then click to see weather observations and forecasts.

To change the map : click on the green buttons with a black cross to zoom in, on the green button with a dash to zoom out, or on the green arrows for adjacent maps.


METAR-TAF: